Time;durP1;ratioP1;P1;durP2;ratioP2;P2;SDS_P1;SDS_P2;PMS_P1;PMS_P2;Temp;Humidity;BMP_temperature;BMP_pressure;BME280_temperature;BME280_humidity;BME280_pressure;Samples;Min_cycle;Max_cycle;Signal;HPM_P1;HPM_P2
2022/09/23 00:01:08;;;;;;;5.50;2.13;;;13.00;99.90;;;;;;5031076;28;20287;-73
2022/09/23 00:03:37;;;;;;;1.85;1.75;;;12.90;99.90;;;;;;5033715;28;20239;-74
2022/09/23 00:06:06;;;;;;;1.90;1.80;;;12.80;99.90;;;;;;5030711;28;20206;-73
2022/09/23 00:08:34;;;;;;;2.35;1.80;;;12.70;99.90;;;;;;5026751;28;20228;-74
2022/09/23 00:11:06;;;;;;;2.10;1.85;;;12.60;99.90;;;;;;5030686;28;20223;-74
2022/09/23 00:13:34;;;;;;;2.55;1.90;;;12.60;99.90;;;;;;5029465;28;20377;-74
2022/09/23 00:16:04;;;;;;;2.20;2.00;;;12.50;99.90;;;;;;5028804;28;20235;-74
2022/09/23 00:18:31;;;;;;;2.13;2.03;;;12.50;99.90;;;;;;5029526;28;20226;-74
2022/09/23 00:21:04;;;;;;;1.83;1.70;;;12.50;99.90;;;;;;5028015;28;20206;-74
2022/09/23 00:23:31;;;;;;;2.05;1.85;;;12.50;99.90;;;;;;5032989;28;20219;-73
2022/09/23 00:26:00;;;;;;;2.35;1.95;;;12.40;99.90;;;;;;5029755;28;20254;-75
2022/09/23 00:28:29;;;;;;;1.90;1.80;;;12.40;99.90;;;;;;5032760;28;20270;-74
2022/09/23 00:30:56;;;;;;;2.58;2.00;;;12.50;99.90;;;;;;5047652;28;20211;-74
2022/09/23 00:33:23;;;;;;;1.85;1.75;;;12.50;99.90;;;;;;5029844;28;20224;-74
2022/09/23 00:35:50;;;;;;;2.63;2.00;;;12.50;99.90;;;;;;5032433;28;20195;-74
2022/09/23 00:38:18;;;;;;;1.90;1.80;;;12.50;99.90;;;;;;5031608;28;20227;-74
2022/09/23 00:40:45;;;;;;;1.65;1.55;;;12.60;99.90;;;;;;5025344;28;20198;-75
2022/09/23 00:43:14;;;;;;;1.67;1.58;;;12.60;99.90;;;;;;5027715;28;20215;-74
2022/09/23 00:45:47;;;;;;;2.17;1.50;;;12.70;99.90;;;;;;5044125;28;20273;-74
2022/09/23 00:48:20;;;;;;;2.30;1.50;;;12.80;99.90;;;;;;5036530;28;20753;-75
2022/09/23 00:50:51;;;;;;;1.55;1.45;;;12.80;99.90;;;;;;5026828;28;20247;-74
2022/09/23 00:53:23;;;;;;;1.65;1.55;;;12.80;99.90;;;;;;5024258;28;20709;-74
2022/09/23 00:55:54;;;;;;;1.90;1.80;;;12.90;99.90;;;;;;5036548;28;20207;-74
2022/09/23 00:58:28;;;;;;;1.52;1.42;;;12.90;99.90;;;;;;5049055;28;20228;-74
2022/09/23 01:00:58;;;;;;;1.75;1.65;;;12.90;99.90;;;;;;5026418;28;20560;-73
2022/09/23 01:03:26;;;;;;;1.70;1.60;;;12.90;99.90;;;;;;5032283;28;20342;-74
2022/09/23 01:05:53;;;;;;;1.60;1.50;;;12.90;99.90;;;;;;5046928;28;20195;-74
2022/09/23 01:08:22;;;;;;;2.92;1.73;;;12.90;99.90;;;;;;5028069;28;20244;-74
2022/09/23 01:11:02;;;;;;;1.75;1.65;;;13.00;99.90;;;;;;5030041;28;20216;-74
2022/09/23 01:13:41;;;;;;;2.33;1.70;;;13.00;99.90;;;;;;5034150;28;20222;-74
2022/09/23 01:16:20;;;;;;;1.70;1.60;;;12.90;99.90;;;;;;5050166;28;20199;-74
2022/09/23 01:18:57;;;;;;;1.50;1.40;;;12.90;99.90;;;;;;5029227;28;20223;-74
2022/09/23 01:21:40;;;;;;;1.83;1.73;;;12.90;99.90;;;;;;5047738;28;20618;-74
2022/09/23 01:24:48;;;;;;;1.60;1.50;;;12.90;99.90;;;;;;5032014;28;20652;-74
2022/09/23 01:27:37;;;;;;;1.60;1.50;;;13.00;99.90;;;;;;4956530;28;20202;-74
2022/09/23 01:30:33;;;;;;;1.50;1.40;;;13.00;99.90;;;;;;5031723;28;20235;-74
2022/09/23 01:33:07;;;;;;;1.65;1.55;;;13.00;99.90;;;;;;5030760;28;20223;-74
2022/09/23 01:35:46;;;;;;;1.40;1.30;;;13.00;99.90;;;;;;5031701;28;20196;-74
2022/09/23 01:38:24;;;;;;;1.90;1.77;;;13.00;99.90;;;;;;5037301;28;20298;-74
2022/09/23 01:40:58;;;;;;;1.60;1.50;;;13.00;99.90;;;;;;5031448;28;20192;-74
2022/09/23 01:43:32;;;;;;;1.58;1.38;;;13.00;99.90;;;;;;5032642;28;20240;-74
2022/09/23 01:46:07;;;;;;;1.70;1.60;;;13.00;99.90;;;;;;5030156;28;20198;-74
2022/09/23 01:48:41;;;;;;;1.58;1.48;;;13.00;99.90;;;;;;5030181;28;20215;-74
2022/09/23 01:51:12;;;;;;;1.60;1.50;;;13.00;99.90;;;;;;5031747;28;20603;-74
2022/09/23 01:53:46;;;;;;;1.48;1.38;;;13.00;99.90;;;;;;5030642;28;20230;-74
2022/09/23 01:56:16;;;;;;;1.35;1.30;;;13.00;99.90;;;;;;5050428;28;20211;-73
2022/09/23 01:58:50;;;;;;;1.60;1.50;;;13.00;99.90;;;;;;5028522;28;20215;-74
2022/09/23 02:01:26;;;;;;;1.40;1.30;;;13.00;99.90;;;;;;5034843;28;20197;-75
2022/09/23 02:04:00;;;;;;;2.15;1.60;;;13.00;99.90;;;;;;5027549;28;20222;-74
2022/09/23 02:06:31;;;;;;;1.50;1.40;;;12.90;99.90;;;;;;5032826;28;20204;-73
2022/09/23 02:09:01;;;;;;;1.40;1.30;;;12.90;99.90;;;;;;5037011;28;20763;-73
2022/09/23 02:11:35;;;;;;;1.10;1.10;;;12.90;99.90;;;;;;5051541;28;20216;-74
2022/09/23 02:14:06;;;;;;;1.30;1.20;;;12.90;99.90;;;;;;5029593;28;20220;-74
2022/09/23 02:16:39;;;;;;;1.85;1.60;;;12.90;99.90;;;;;;5032268;28;20203;-74
2022/09/23 02:19:10;;;;;;;1.50;1.40;;;12.90;99.90;;;;;;5030464;28;20274;-74
2022/09/23 02:21:50;;;;;;;1.38;1.27;;;12.90;99.90;;;;;;5033413;28;20238;-74
2022/09/23 02:24:21;;;;;;;1.40;1.30;;;12.90;99.90;;;;;;5032706;28;20302;-74
2022/09/23 02:26:54;;;;;;;1.60;1.50;;;12.90;99.90;;;;;;5034415;28;20191;-74
2022/09/23 02:29:26;;;;;;;1.50;1.25;;;12.90;99.90;;;;;;5030829;28;20675;-75
2022/09/23 02:32:00;;;;;;;1.88;1.33;;;12.90;99.90;;;;;;5045038;28;20215;-75
2022/09/23 02:34:40;;;;;;;1.52;1.42;;;12.90;99.90;;;;;;5030370;28;20672;-75
2022/09/23 02:37:15;;;;;;;1.83;1.73;;;12.90;99.90;;;;;;5031095;28;20628;-75
2022/09/23 02:39:55;;;;;;;1.60;1.40;;;12.90;99.90;;;;;;5032381;28;20301;-75
2022/09/23 02:42:26;;;;;;;1.80;1.60;;;12.80;99.90;;;;;;5048706;28;20187;-75
2022/09/23 02:44:53;;;;;;;1.50;1.40;;;12.80;99.90;;;;;;5031496;28;20227;-74
2022/09/23 02:47:28;;;;;;;2.10;1.60;;;12.70;99.90;;;;;;5028556;28;20199;-75
2022/09/23 02:49:56;;;;;;;1.60;1.50;;;12.70;99.90;;;;;;5049064;28;20218;-74
2022/09/23 02:52:24;;;;;;;1.65;1.50;;;12.70;99.90;;;;;;5030734;28;20342;-75
2022/09/23 02:54:52;;;;;;;1.35;1.25;;;12.70;99.90;;;;;;5033199;28;20219;-75
2022/09/23 02:57:20;;;;;;;1.42;1.33;;;12.70;99.90;;;;;;5032968;28;20669;-75
2022/09/23 02:59:49;;;;;;;1.75;1.65;;;12.70;99.90;;;;;;5037926;28;20226;-73
2022/09/23 03:02:41;;;;;;;1.67;1.52;;;12.70;99.90;;;;;;5061219;28;20803;-74
2022/09/23 03:05:18;;;;;;;1.88;1.77;;;12.70;99.90;;;;;;5032740;28;20216;-74
2022/09/23 03:07:58;;;;;;;1.83;1.73;;;12.60;99.90;;;;;;5045200;28;20552;-75
2022/09/23 03:10:31;;;;;;;1.60;1.50;;;12.60;99.90;;;;;;5043502;28;20207;-75
2022/09/23 03:13:13;;;;;;;2.45;1.52;;;12.60;99.90;;;;;;5025861;28;20220;-74
2022/09/23 03:15:50;;;;;;;1.80;1.70;;;12.60;99.90;;;;;;5027682;28;20297;-74
2022/09/23 03:18:24;;;;;;;1.50;1.40;;;12.60;99.90;;;;;;5027338;28;20226;-74
2022/09/23 03:20:56;;;;;;;1.40;1.33;;;12.60;99.90;;;;;;5030541;28;20632;-74
2022/09/23 03:23:29;;;;;;;1.50;1.40;;;12.70;99.90;;;;;;5039724;28;20207;-73
2022/09/23 03:25:58;;;;;;;2.03;1.40;;;12.70;99.90;;;;;;5037495;28;20199;-74
2022/09/23 03:28:28;;;;;;;1.50;1.40;;;12.70;99.90;;;;;;5027478;28;20219;-75
2022/09/23 03:30:58;;;;;;;1.60;1.50;;;12.60;99.90;;;;;;5022139;28;20192;-75
2022/09/23 03:33:28;;;;;;;1.88;1.77;;;12.60;99.90;;;;;;5031071;28;20228;-72
2022/09/23 03:38:51;;;;;;;1.60;1.50;;;12.60;99.90;;;;;;5030397;28;20233;-74
2022/09/23 03:41:28;;;;;;;1.40;1.30;;;12.50;99.90;;;;;;5030564;28;20226;-74
2022/09/23 03:43:58;;;;;;;2.10;1.83;;;12.50;99.90;;;;;;5028588;28;20306;-74
2022/09/23 03:46:26;;;;;;;1.80;1.70;;;12.50;99.90;;;;;;5027233;28;20192;-74
2022/09/23 03:49:00;;;;;;;1.70;1.60;;;12.50;99.90;;;;;;5034794;28;20221;-74
2022/09/23 03:51:27;;;;;;;2.35;1.50;;;12.50;99.90;;;;;;5033652;28;20700;-74
2022/09/23 03:53:55;;;;;;;1.70;1.60;;;12.40;99.90;;;;;;5045839;28;20219;-73
2022/09/23 03:56:22;;;;;;;1.60;1.50;;;12.40;99.90;;;;;;5046822;28;20214;-75
2022/09/23 03:58:50;;;;;;;1.33;1.23;;;12.40;99.90;;;;;;5028500;28;20692;-74
2022/09/23 04:01:18;;;;;;;1.60;1.50;;;12.40;99.90;;;;;;5034797;28;20195;-74
2022/09/23 04:03:45;;;;;;;1.77;1.55;;;12.40;99.90;;;;;;5028184;28;20231;-74
2022/09/23 04:06:14;;;;;;;1.70;1.60;;;12.40;99.90;;;;;;5024834;28;20200;-74
2022/09/23 04:08:42;;;;;;;1.65;1.55;;;12.40;99.90;;;;;;5046956;28;20802;-74
2022/09/23 04:11:09;;;;;;;1.55;1.45;;;12.40;99.90;;;;;;5025544;28;20215;-74
2022/09/23 04:13:36;;;;;;;1.50;1.40;;;12.40;99.90;;;;;;5029996;28;20226;-74
2022/09/23 04:16:04;;;;;;;1.70;1.60;;;12.40;99.90;;;;;;5031317;28;20207;-74
2022/09/23 04:18:31;;;;;;;1.70;1.60;;;12.30;99.90;;;;;;5029681;28;20226;-75
2022/09/23 04:20:59;;;;;;;1.65;1.55;;;12.30;99.90;;;;;;5031335;28;20199;-74
2022/09/23 04:23:28;;;;;;;1.65;1.55;;;12.30;99.90;;;;;;5034044;28;20302;-74
2022/09/23 04:25:56;;;;;;;1.65;1.55;;;12.30;99.90;;;;;;5034487;28;20221;-72
2022/09/23 04:28:23;;;;;;;1.55;1.45;;;12.30;99.90;;;;;;5032610;28;20219;-74
2022/09/23 04:30:52;;;;;;;2.45;1.50;;;12.30;99.90;;;;;;5035520;28;20207;-75
2022/09/23 04:33:20;;;;;;;1.90;1.80;;;12.30;99.90;;;;;;5028129;28;20220;-74
2022/09/23 04:35:50;;;;;;;1.75;1.65;;;12.30;99.90;;;;;;5036417;28;20203;-74
2022/09/23 04:38:18;;;;;;;1.75;1.65;;;12.30;99.90;;;;;;5056478;28;20218;-72
2022/09/23 04:40:46;;;;;;;2.05;1.95;;;12.30;99.90;;;;;;5038640;28;20203;-73
2022/09/23 04:43:15;;;;;;;1.90;1.80;;;12.30;99.90;;;;;;5028963;28;20732;-76
2022/09/23 04:45:42;;;;;;;1.70;1.60;;;12.30;99.90;;;;;;5030588;28;20199;-76
2022/09/23 04:48:09;;;;;;;2.47;1.73;;;12.30;99.90;;;;;;5028720;28;20277;-74
2022/09/23 04:50:37;;;;;;;2.17;2.00;;;12.30;99.90;;;;;;5030240;28;20238;-72
2022/09/23 04:53:05;;;;;;;1.70;1.60;;;12.30;99.90;;;;;;5021261;28;20301;-74
2022/09/23 04:55:32;;;;;;;1.67;1.58;;;12.30;99.90;;;;;;5036152;28;20200;-74
2022/09/23 04:58:02;;;;;;;1.58;1.48;;;12.30;99.90;;;;;;5025472;28;20749;-74
2022/09/23 05:00:29;;;;;;;1.60;1.50;;;12.30;99.90;;;;;;5041849;28;20563;-73
2022/09/23 05:02:56;;;;;;;1.42;1.33;;;12.20;99.90;;;;;;5029592;28;20195;-74
2022/09/23 05:05:23;;;;;;;1.65;1.55;;;12.20;99.90;;;;;;5025811;28;20204;-73
2022/09/23 05:07:51;;;;;;;1.73;1.63;;;12.30;99.90;;;;;;5040613;28;20203;-74
2022/09/23 05:10:18;;;;;;;1.63;1.40;;;12.30;99.90;;;;;;5024838;28;20208;-73
2022/09/23 05:12:46;;;;;;;1.70;1.60;;;12.30;99.90;;;;;;5034365;28;20226;-75
2022/09/23 05:15:15;;;;;;;2.30;1.50;;;12.30;99.90;;;;;;5026541;28;20231;-74
2022/09/23 05:17:43;;;;;;;1.58;1.45;;;12.30;99.90;;;;;;5025276;28;20282;-73
2022/09/23 05:20:12;;;;;;;2.35;1.88;;;12.30;99.90;;;;;;5039816;28;20383;-72
2022/09/23 05:22:39;;;;;;;1.40;1.40;;;12.30;99.90;;;;;;5045476;28;20198;-73
2022/09/23 05:25:07;;;;;;;1.73;1.60;;;12.30;99.90;;;;;;5021546;28;21691;-72
2022/09/23 05:27:35;;;;;;;2.83;1.70;;;12.30;99.90;;;;;;5025020;28;20212;-71
2022/09/23 05:30:03;;;;;;;1.95;1.85;;;12.40;99.90;;;;;;5028623;28;20330;-71
2022/09/23 05:32:32;;;;;;;2.08;1.80;;;12.40;99.90;;;;;;5042484;28;20906;-73
2022/09/23 05:35:00;;;;;;;2.17;2.08;;;12.40;99.90;;;;;;5024486;28;20915;-72
2022/09/23 05:37:27;;;;;;;2.03;1.92;;;12.40;99.90;;;;;;5024985;28;20278;-72
2022/09/23 05:39:55;;;;;;;2.00;1.90;;;12.40;99.90;;;;;;5022599;28;20224;-72
2022/09/23 05:42:22;;;;;;;1.70;1.60;;;12.50;99.90;;;;;;5024656;28;20217;-71
2022/09/23 05:44:50;;;;;;;1.70;1.60;;;12.50;99.90;;;;;;5020047;28;20224;-71
2022/09/23 05:47:17;;;;;;;1.52;1.42;;;12.50;99.90;;;;;;5025975;28;20216;-72
2022/09/23 05:49:46;;;;;;;2.13;1.70;;;12.60;99.90;;;;;;5024350;28;20219;-72
2022/09/23 05:52:13;;;;;;;2.20;2.00;;;12.60;99.90;;;;;;5043548;28;20227;-72
2022/09/23 05:54:40;;;;;;;1.63;1.52;;;12.60;99.90;;;;;;5026730;28;20303;-71
2022/09/23 05:57:08;;;;;;;1.65;1.55;;;12.60;99.90;;;;;;5025751;28;20211;-71
2022/09/23 05:59:37;;;;;;;1.70;1.60;;;12.60;99.90;;;;;;5039926;28;20277;-73
2022/09/23 06:02:05;;;;;;;1.60;1.50;;;12.60;99.90;;;;;;5025352;28;20367;-72
2022/09/23 06:04:32;;;;;;;1.50;1.40;;;12.70;99.90;;;;;;5027417;28;20223;-72
2022/09/23 06:07:01;;;;;;;1.92;1.80;;;12.70;99.90;;;;;;5041747;28;20195;-72
2022/09/23 06:09:28;;;;;;;1.75;1.65;;;12.70;99.90;;;;;;5030345;28;20219;-71
2022/09/23 06:11:56;;;;;;;1.65;1.55;;;12.80;99.90;;;;;;5030360;28;20211;-71
2022/09/23 06:14:23;;;;;;;1.70;1.60;;;12.80;99.90;;;;;;5024763;28;20234;-71
2022/09/23 06:16:50;;;;;;;1.92;1.83;;;12.80;99.90;;;;;;5026086;28;20199;-71
2022/09/23 06:19:18;;;;;;;1.95;1.85;;;12.90;99.90;;;;;;5030305;28;20231;-70
2022/09/23 06:21:45;;;;;;;1.70;1.60;;;12.90;99.90;;;;;;5022631;28;20464;-73
2022/09/23 06:24:13;;;;;;;1.63;1.52;;;13.00;99.90;;;;;;5027036;28;20272;-73
2022/09/23 06:26:41;;;;;;;1.27;1.27;;;13.10;99.90;;;;;;5025394;28;20764;-70
2022/09/23 06:29:10;;;;;;;1.90;1.70;;;13.20;99.90;;;;;;5031156;28;20269;-72
2022/09/23 06:31:39;;;;;;;1.88;1.77;;;13.20;99.90;;;;;;5026700;28;20833;-71
2022/09/23 06:34:07;;;;;;;2.13;1.92;;;13.30;99.90;;;;;;5024386;28;21281;-71
2022/09/23 06:36:34;;;;;;;1.95;1.75;;;13.40;99.90;;;;;;5028131;28;20195;-73
2022/09/23 06:39:02;;;;;;;1.98;1.88;;;13.50;99.90;;;;;;5021557;28;20223;-71
2022/09/23 06:41:31;;;;;;;1.88;1.77;;;13.90;99.90;;;;;;5026790;28;20286;-71
2022/09/23 06:44:00;;;;;;;2.70;2.22;;;14.40;99.90;;;;;;5018071;28;20234;-71
2022/09/23 06:46:28;;;;;;;2.08;1.90;;;15.00;99.90;;;;;;5026097;28;20198;-71
2022/09/23 06:48:55;;;;;;;2.03;1.90;;;15.30;99.90;;;;;;5025594;28;20222;-72
2022/09/23 06:51:23;;;;;;;2.67;1.95;;;15.60;99.90;;;;;;5025816;28;20571;-71
2022/09/23 06:53:50;;;;;;;1.95;1.85;;;15.60;99.90;;;;;;5023112;28;20246;-71
2022/09/23 06:56:18;;;;;;;1.77;1.67;;;15.50;99.90;;;;;;5020747;28;20192;-72
2022/09/23 06:58:47;;;;;;;1.50;1.40;;;15.20;99.90;;;;;;5021189;28;20223;-74
2022/09/23 07:01:16;;;;;;;1.85;1.70;;;14.90;99.90;;;;;;5026802;28;20200;-73
2022/09/23 07:03:44;;;;;;;1.67;1.45;;;14.70;99.90;;;;;;5016057;28;20931;-71
2022/09/23 07:06:11;;;;;;;1.45;1.35;;;14.50;99.90;;;;;;5032701;28;20702;-71
2022/09/23 07:08:39;;;;;;;2.88;1.73;;;14.40;99.90;;;;;;5021198;28;20235;-73
2022/09/23 07:11:11;;;;;;;2.03;1.73;;;14.20;99.90;;;;;;5027927;28;20207;-73
2022/09/23 07:13:40;;;;;;;2.13;1.85;;;14.20;99.90;;;;;;5025256;28;20223;-73
2022/09/23 07:16:10;;;;;;;2.22;1.75;;;14.00;99.90;;;;;;5026469;28;20242;-73
2022/09/23 07:18:37;;;;;;;1.73;1.63;;;14.00;99.90;;;;;;5028266;28;20791;-73
2022/09/23 07:21:08;;;;;;;2.67;1.90;;;13.90;99.90;;;;;;5024377;28;20687;-71
2022/09/23 07:23:37;;;;;;;1.70;1.60;;;13.80;99.90;;;;;;5026072;28;20219;-73
2022/09/23 07:26:06;;;;;;;2.05;1.80;;;13.80;99.90;;;;;;5017737;28;20203;-73
2022/09/23 07:28:34;;;;;;;2.72;1.58;;;13.80;99.90;;;;;;5028715;28;20225;-73
2022/09/23 07:31:08;;;;;;;1.90;1.67;;;13.90;99.90;;;;;;5026095;28;20234;-73
2022/09/23 07:33:39;;;;;;;1.60;1.50;;;13.90;99.90;;;;;;5023047;28;20306;-73
2022/09/23 07:36:07;;;;;;;1.67;1.58;;;14.00;99.90;;;;;;5019151;28;20192;-73
2022/09/23 07:38:35;;;;;;;2.65;1.88;;;14.10;99.90;;;;;;5017901;28;20211;-73
2022/09/23 07:41:04;;;;;;;2.55;1.50;;;14.10;99.90;;;;;;5032693;28;20713;-73
2022/09/23 07:43:32;;;;;;;1.48;1.38;;;14.10;99.90;;;;;;5022082;28;20219;-73
2022/09/23 07:46:02;;;;;;;1.85;1.50;;;14.30;99.90;;;;;;5020662;28;20191;-72
2022/09/23 07:48:30;;;;;;;1.80;1.70;;;14.50;99.90;;;;;;5025124;28;20305;-73
2022/09/23 07:50:59;;;;;;;1.70;1.60;;;14.70;99.90;;;;;;5024637;28;20651;-73
2022/09/23 07:53:27;;;;;;;1.90;1.70;;;14.80;99.90;;;;;;5024845;28;20227;-73
2022/09/23 07:55:55;;;;;;;3.00;1.88;;;15.00;99.90;;;;;;5026212;28;20715;-73
2022/09/23 07:58:24;;;;;;;1.70;1.60;;;15.20;99.90;;;;;;5015667;28;20219;-73
2022/09/23 08:00:52;;;;;;;2.03;1.83;;;15.30;99.90;;;;;;5018647;28;20287;-73
2022/09/23 08:03:20;;;;;;;2.13;1.92;;;15.40;99.90;;;;;;5027394;28;20234;-73
2022/09/23 08:05:48;;;;;;;1.92;1.77;;;15.40;99.90;;;;;;5028414;28;20254;-73
2022/09/23 08:08:17;;;;;;;2.75;2.05;;;15.50;99.90;;;;;;5024637;28;20227;-73
2022/09/23 08:10:44;;;;;;;1.92;1.83;;;15.60;99.90;;;;;;5021474;28;20719;-73
2022/09/23 08:13:11;;;;;;;1.60;1.50;;;15.90;99.90;;;;;;5026694;28;20229;-74
2022/09/23 08:15:42;;;;;;;2.15;1.88;;;16.10;99.90;;;;;;5040062;28;20540;-73
2022/09/23 08:18:10;;;;;;;1.90;1.80;;;16.20;99.90;;;;;;5027957;28;20223;-73
2022/09/23 08:20:46;;;;;;;1.85;1.60;;;16.20;99.90;;;;;;5027416;28;20227;-74
2022/09/23 08:23:15;;;;;;;1.60;1.50;;;16.40;99.90;;;;;;5031032;28;20221;-72
2022/09/23 08:25:46;;;;;;;2.05;1.77;;;16.30;99.90;;;;;;5023433;28;20199;-73
2022/09/23 08:28:17;;;;;;;1.70;1.60;;;16.20;99.90;;;;;;5024721;28;20250;-72
2022/09/23 08:30:45;;;;;;;2.75;1.70;;;16.30;99.90;;;;;;5024340;28;20208;-73
2022/09/23 08:33:12;;;;;;;2.10;1.90;;;16.60;99.90;;;;;;5028659;28;20223;-73
2022/09/23 08:35:40;;;;;;;2.55;1.80;;;16.70;99.90;;;;;;5027133;28;20194;-73
2022/09/23 08:38:07;;;;;;;2.13;1.92;;;16.90;99.90;;;;;;5039891;28;20246;-73
2022/09/23 08:40:37;;;;;;;1.65;1.50;;;17.60;99.90;;;;;;5023838;28;20195;-73
2022/09/23 08:43:09;;;;;;;2.15;1.70;;;18.00;99.90;;;;;;5025731;28;20231;-73
2022/09/23 08:45:38;;;;;;;1.88;1.77;;;17.90;99.90;;;;;;5023218;28;20823;-74
2022/09/23 08:48:12;;;;;;;2.40;1.98;;;18.40;99.90;;;;;;5020050;28;20274;-73
2022/09/23 08:50:42;;;;;;;2.33;2.13;;;19.00;99.90;;;;;;5027518;28;20201;-73
2022/09/23 08:53:17;;;;;;;2.85;1.60;;;19.40;99.90;;;;;;5026557;28;21232;-73
2022/09/23 08:55:48;;;;;;;1.58;1.48;;;19.20;99.90;;;;;;5026730;28;20195;-73
2022/09/23 08:58:30;;;;;;;2.47;1.67;;;19.40;99.90;;;;;;5022677;28;20269;-73
2022/09/23 09:01:13;;;;;;;2.05;1.60;;;19.90;99.90;;;;;;5018016;28;20254;-73
2022/09/23 09:03:46;;;;;;;1.83;1.70;;;20.00;99.90;;;;;;5022934;28;20226;-73
2022/09/23 09:06:18;;;;;;;2.45;1.70;;;20.10;99.90;;;;;;5024355;28;20199;-73
2022/09/23 09:08:51;;;;;;;2.60;1.77;;;20.10;99.90;;;;;;5020945;28;20277;-73
2022/09/23 09:11:20;;;;;;;2.13;1.73;;;20.00;99.90;;;;;;5029165;28;20279;-73
2022/09/23 09:13:57;;;;;;;4.47;1.50;;;20.10;99.90;;;;;;5044400;28;20281;-73
2022/09/23 09:16:45;;;;;;;1.60;1.42;;;20.20;99.90;;;;;;5027650;28;20608;-74
2022/09/23 09:19:19;;;;;;;2.17;1.60;;;20.50;99.90;;;;;;5027952;28;20894;-73
2022/09/23 09:21:48;;;;;;;2.67;1.67;;;20.60;99.90;;;;;;5026800;28;20552;-75
2022/09/23 09:24:19;;;;;;;1.70;1.60;;;20.70;99.90;;;;;;5029404;28;20704;-74
2022/09/23 09:26:47;;;;;;;3.42;1.60;;;20.90;99.90;;;;;;5021417;28;20211;-73
2022/09/23 09:29:20;;;;;;;1.83;1.63;;;21.10;99.90;;;;;;5025792;28;20722;-74
2022/09/23 09:31:49;;;;;;;1.35;1.25;;;21.20;99.90;;;;;;5031646;28;20195;-73
2022/09/23 09:34:27;;;;;;;1.73;1.30;;;21.40;99.90;;;;;;5049903;28;20227;-74
2022/09/23 09:37:04;;;;;;;1.80;1.48;;;21.50;99.90;;;;;;5027498;28;20192;-72
2022/09/23 09:39:32;;;;;;;2.05;1.85;;;21.40;99.90;;;;;;5044275;28;20225;-73
2022/09/23 09:42:00;;;;;;;1.90;1.80;;;21.40;99.90;;;;;;5025565;28;20200;-73
2022/09/23 09:44:37;;;;;;;1.90;1.80;;;21.50;99.90;;;;;;5024023;28;20215;-72
2022/09/23 09:47:17;;;;;;;4.35;2.08;;;21.60;99.90;;;;;;5024445;28;20203;-73
2022/09/23 09:49:54;;;;;;;2.03;1.55;;;21.50;99.90;;;;;;5023481;28;20700;-74
2022/09/23 09:52:24;;;;;;;2.10;2.00;;;21.30;99.90;;;;;;5024973;28;20230;-73
2022/09/23 09:54:59;;;;;;;1.80;1.70;;;21.10;99.90;;;;;;5022272;28;20747;-74
2022/09/23 09:57:37;;;;;;;1.80;1.70;;;21.00;99.90;;;;;;5034845;28;20199;-74
2022/09/23 10:00:37;;;;;;;2.10;1.92;;;21.10;99.90;;;;;;5024444;28;20227;-73
2022/09/23 10:03:20;;;;;;;2.22;2.03;;;20.90;99.90;;;;;;5031310;28;20334;-74
2022/09/23 10:11:07;;;;;;;1.70;1.60;;;20.80;99.90;;;;;;5086982;27;20278;-76
2022/09/23 10:13:35;;;;;;;2.15;1.95;;;21.10;99.90;;;;;;5078186;27;20224;-78
2022/09/23 10:16:03;;;;;;;2.55;2.00;;;21.30;99.90;;;;;;5052332;28;20213;-79
2022/09/23 10:18:32;;;;;;;2.53;2.25;;;21.10;99.90;;;;;;5064628;28;20602;-79
2022/09/23 10:21:12;;;;;;;2.40;2.20;;;21.00;99.90;;;;;;5076835;28;20271;-77
2022/09/23 10:23:41;;;;;;;2.53;2.33;;;20.90;99.90;;;;;;5078563;28;20296;-78
2022/09/23 10:26:11;;;;;;;2.28;2.08;;;20.90;99.90;;;;;;5071261;28;20253;-76
2022/09/23 10:28:46;;;;;;;3.67;2.25;;;20.70;99.90;;;;;;5075794;28;20302;-78
2022/09/23 10:31:16;;;;;;;2.30;2.10;;;20.70;99.90;;;;;;5077735;28;20227;-77
2022/09/23 10:33:48;;;;;;;2.75;2.20;;;20.70;99.90;;;;;;5075780;28;20273;-76
2022/09/23 10:36:17;;;;;;;5.68;2.45;;;20.90;99.90;;;;;;5075426;28;20214;-77
2022/09/23 10:38:44;;;;;;;3.15;2.85;;;21.00;99.90;;;;;;5079893;28;20292;-73
2022/09/23 10:47:20;;;;;;;3.42;2.83;;;20.50;99.90;;;;;;5070783;28;20220;-75
2022/09/23 10:50:11;;;;;;;7.35;2.95;;;20.90;99.90;;;;;;5073489;28;20688;-78
2022/09/23 10:52:47;;;;;;;3.33;3.00;;;20.90;99.90;;;;;;5078609;28;20198;-78
2022/09/23 10:55:29;;;;;;;3.30;2.80;;;21.00;99.90;;;;;;5074126;28;20271;-78
2022/09/23 10:58:13;;;;;;;3.17;2.88;;;20.90;99.90;;;;;;5075227;28;20696;-78
2022/09/23 11:00:50;;;;;;;3.90;2.95;;;20.60;99.90;;;;;;5070975;28;20194;-77
2022/09/23 11:04:03;;;;;;;2.83;2.63;;;20.40;99.90;;;;;;5070525;28;20241;-79
2022/09/23 11:06:37;;;;;;;2.90;2.53;;;20.40;99.90;;;;;;5045177;28;20233;-78
2022/09/23 11:09:20;;;;;;;3.35;2.75;;;20.90;99.90;;;;;;5070713;28;20341;-78
2022/09/23 11:12:02;;;;;;;3.20;2.25;;;20.80;99.90;;;;;;5094019;22;20217;-73
2022/09/23 11:14:47;;;;;;;3.00;2.70;;;20.70;99.90;;;;;;5056725;28;20230;-72
2022/09/23 11:17:30;;;;;;;4.47;2.58;;;20.70;99.90;;;;;;5059132;28;20712;-73
2022/09/23 11:20:12;;;;;;;2.20;2.08;;;20.40;99.90;;;;;;5060863;28;20225;-73
2022/09/23 11:22:58;;;;;;;3.75;2.38;;;20.20;99.90;;;;;;5045484;28;20881;-73
2022/09/23 11:25:36;;;;;;;2.42;1.90;;;20.30;99.90;;;;;;5067285;22;20530;-75
2022/09/23 11:28:34;;;;;;;3.80;1.77;;;20.50;99.90;;;;;;5042692;28;20226;-75
2022/09/23 11:31:18;;;;;;;5.93;2.35;;;20.80;99.90;;;;;;5051376;28;20231;-75
2022/09/23 11:33:56;;;;;;;2.78;2.03;;;20.80;99.90;;;;;;5041993;28;20248;-75
2022/09/23 11:36:29;;;;;;;2.17;1.98;;;20.90;99.90;;;;;;5043654;28;20201;-75
2022/09/23 11:38:59;;;;;;;1.83;1.73;;;20.70;99.90;;;;;;5043755;28;20226;-75
2022/09/23 11:41:30;;;;;;;2.33;2.10;;;20.80;99.90;;;;;;5046834;28;20223;-75
2022/09/23 11:44:03;;;;;;;3.15;2.00;;;20.80;99.90;;;;;;5044075;28;20439;-74
2022/09/23 11:46:38;;;;;;;4.65;1.90;;;20.90;99.90;;;;;;5045369;28;20219;-75
2022/09/23 11:49:09;;;;;;;3.10;1.80;;;20.90;99.90;;;;;;5043750;28;20291;-74
2022/09/23 11:51:44;;;;;;;2.00;1.77;;;20.90;99.90;;;;;;5045430;28;20897;-75
2022/09/23 11:54:17;;;;;;;2.22;1.80;;;20.90;99.90;;;;;;5045009;28;20214;-76
2022/09/23 11:56:46;;;;;;;1.80;1.67;;;21.00;99.90;;;;;;5044691;28;20272;-76
2022/09/23 11:59:31;;;;;;;2.72;1.85;;;20.90;99.90;;;;;;5040790;28;20218;-76
2022/09/23 12:02:04;;;;;;;2.42;2.10;;;20.70;99.90;;;;;;5042714;28;20470;-76
2022/09/23 12:04:36;;;;;;;2.08;1.95;;;20.70;99.90;;;;;;5044003;28;20222;-76
2022/09/23 12:07:10;;;;;;;2.95;2.00;;;20.60;99.90;;;;;;5042754;28;20564;-76
2022/09/23 12:09:42;;;;;;;2.15;1.77;;;20.70;99.90;;;;;;5040781;28;20732;-76
2022/09/23 12:12:19;;;;;;;4.38;2.30;;;20.60;99.90;;;;;;5043474;28;20225;-75
2022/09/23 12:14:58;;;;;;;2.95;1.63;;;20.50;99.90;;;;;;5042693;28;20284;-75
2022/09/23 12:17:55;;;;;;;1.90;1.75;;;20.50;99.90;;;;;;5044100;28;20195;-74
2022/09/23 12:20:34;;;;;;;2.72;1.73;;;20.50;99.90;;;;;;5045125;28;20599;-74
2022/09/23 12:23:14;;;;;;;2.15;1.90;;;20.70;99.90;;;;;;5040464;28;20550;-74
2022/09/23 12:25:46;;;;;;;2.10;1.90;;;20.70;99.90;;;;;;5043702;28;20210;-75
2022/09/23 12:28:18;;;;;;;2.17;1.98;;;20.70;99.90;;;;;;5043203;28;20242;-74
2022/09/23 12:30:47;;;;;;;1.80;1.70;;;20.60;99.90;;;;;;5043788;28;20211;-76
2022/09/23 12:33:23;;;;;;;2.70;2.00;;;20.70;99.90;;;;;;5043011;28;20218;-75
2022/09/23 12:35:52;;;;;;;2.10;1.83;;;20.90;99.90;;;;;;5043639;28;20679;-75
2022/09/23 12:38:23;;;;;;;1.60;1.50;;;21.00;99.90;;;;;;5043490;28;20308;-76
2022/09/23 12:40:52;;;;;;;1.95;1.75;;;21.10;99.90;;;;;;5040492;28;20309;-75
2022/09/23 12:43:28;;;;;;;2.22;1.77;;;20.90;99.90;;;;;;5043895;28;20214;-76
2022/09/23 12:46:16;;;;;;;1.73;1.63;;;20.90;99.90;;;;;;5043066;28;20603;-75
2022/09/23 12:48:59;;;;;;;2.60;1.50;;;20.90;99.90;;;;;;5039485;28;20302;-75
2022/09/23 12:51:27;;;;;;;1.98;1.88;;;20.80;99.90;;;;;;5042994;28;20226;-75
2022/09/23 12:54:16;;;;;;;1.75;1.60;;;20.80;99.90;;;;;;5045242;28;20296;-75
2022/09/23 12:57:11;;;;;;;1.80;1.70;;;20.90;99.90;;;;;;5043198;28;20195;-75
2022/09/23 12:59:55;;;;;;;1.90;1.80;;;20.80;99.90;;;;;;5024799;28;20215;-76
2022/09/23 13:02:32;;;;;;;2.33;2.00;;;20.80;99.90;;;;;;5036487;28;20199;-76
2022/09/23 13:08:17;;;;;;;3.10;1.63;;;20.70;99.90;;;;;;5008040;28;20230;-74
2022/09/23 13:10:48;;;;;;;2.03;1.60;;;20.70;99.90;;;;;;5033855;28;20231;-75
2022/09/23 13:13:23;;;;;;;2.05;1.85;;;20.70;99.90;;;;;;5034623;28;20294;-75
2022/09/23 13:15:50;;;;;;;1.92;1.60;;;20.70;99.90;;;;;;5042446;28;20251;-75
2022/09/23 13:18:50;;;;;;;2.40;1.55;;;20.70;99.90;;;;;;5038672;28;20223;-75
2022/09/23 13:21:35;;;;;;;2.00;1.42;;;20.70;99.90;;;;;;5035635;28;20750;-76
2022/09/23 13:24:20;;;;;;;1.70;1.40;;;20.70;99.90;;;;;;5034925;28;20223;-75
2022/09/23 13:26:49;;;;;;;1.45;1.35;;;20.80;99.90;;;;;;5036602;28;20503;-75
2022/09/23 13:29:20;;;;;;;1.70;1.60;;;20.70;99.90;;;;;;5031778;28;20218;-75
2022/09/23 13:31:48;;;;;;;2.58;1.60;;;20.70;99.90;;;;;;5040507;28;20231;-74